CheckWX is a tool to help pilots better visualize weather data.  It is not intended as a substitute for an official pre-flight weather briefing.

14:39:55 UTC

KRDG METAR
Reading Regional / Carl A Spaatz Field Airport
Reading, Pennsylvania, USA
Current

46 mins ago

KRDG 171354Z 02007KT 10SM BKN037 M01/M09 A3032 RMK AO2 SLP275 T10061094
Observed
Nov-17 @ 13:54 UTC
Wind
  • 020° at 7 KTS
Visibility
10 SM
Flight Rules
VFR
Cloud Levels
  • Broken at 3,700' AGL
Temperature
-1°C / 30°F
Dewpoint
-9°C / 16°F
Humidity
55%
Altimeter
30.32" Hg
Pressure
1026.72 hPa
Previous

1 hour ago

KRDG 171314Z 02008KT 10SM OVC028 M01/M10 A3033 RMK AO2 T10061100
Observed
Nov-17 @ 13:14 UTC
Wind
  • 020° at 8 KTS
Visibility
10 SM
Flight Rules
MVFR
Cloud Levels
  • Overcast at 2,800' AGL
Temperature
-1°C / 30°F
Dewpoint
-10°C / 14°F
Humidity
51%
Altimeter
30.33" Hg
Pressure
1027.12 hPa
Previous

2 hours ago

KRDG 171254Z 02005KT 10SM BKN032 M01/M11 A3033 RMK AO2 SLP279 T10111106
Observed
Nov-17 @ 12:54 UTC
Wind
  • 020° at 5 KTS
Visibility
10 SM
Flight Rules
VFR
Cloud Levels
  • Broken at 3,200' AGL
Temperature
-1°C / 30°F
Dewpoint
-11°C / 12°F
Humidity
47%
Altimeter
30.33" Hg
Pressure
1027.12 hPa